sensor_id;sensor_type;location;lat;lon;timestamp;P1;durP1;ratioP1;P2;durP2;ratioP2
63218;SDS011;49320;52.512;13.448;2023-09-30T00:01:14;2.30;;;0.98;;
63218;SDS011;49320;52.512;13.448;2023-09-30T00:03:41;2.40;;;1.10;;
63218;SDS011;49320;52.512;13.448;2023-09-30T00:06:08;2.58;;;0.90;;
63218;SDS011;49320;52.512;13.448;2023-09-30T00:08:35;2.13;;;1.10;;
63218;SDS011;49320;52.512;13.448;2023-09-30T00:11:05;2.63;;;1.13;;
63218;SDS011;49320;52.512;13.448;2023-09-30T00:13:32;2.42;;;1.05;;
63218;SDS011;49320;52.512;13.448;2023-09-30T00:15:59;3.60;;;1.52;;
63218;SDS011;49320;52.512;13.448;2023-09-30T00:18:26;3.80;;;1.20;;
63218;SDS011;49320;52.512;13.448;2023-09-30T00:20:54;3.10;;;1.40;;
63218;SDS011;49320;52.512;13.448;2023-09-30T00:23:21;4.65;;;1.88;;
63218;SDS011;49320;52.512;13.448;2023-09-30T00:25:47;5.20;;;1.80;;
63218;SDS011;49320;52.512;13.448;2023-09-30T00:28:17;3.40;;;1.70;;
63218;SDS011;49320;52.512;13.448;2023-09-30T00:30:45;3.28;;;1.63;;
63218;SDS011;49320;52.512;13.448;2023-09-30T00:33:14;5.47;;;1.95;;
63218;SDS011;49320;52.512;13.448;2023-09-30T00:35:41;5.20;;;2.03;;
63218;SDS011;49320;52.512;13.448;2023-09-30T00:38:07;5.03;;;1.95;;
63218;SDS011;49320;52.512;13.448;2023-09-30T00:40:36;4.07;;;1.80;;
63218;SDS011;49320;52.512;13.448;2023-09-30T00:43:03;6.70;;;2.47;;
63218;SDS011;49320;52.512;13.448;2023-09-30T00:45:30;5.55;;;2.30;;
63218;SDS011;49320;52.512;13.448;2023-09-30T00:47:57;5.03;;;2.13;;
63218;SDS011;49320;52.512;13.448;2023-09-30T00:50:24;5.30;;;1.70;;
63218;SDS011;49320;52.512;13.448;2023-09-30T00:52:53;4.15;;;1.88;;
63218;SDS011;49320;52.512;13.448;2023-09-30T00:55:20;2.95;;;1.65;;
63218;SDS011;49320;52.512;13.448;2023-09-30T00:57:48;3.72;;;1.73;;
63218;SDS011;49320;52.512;13.448;2023-09-30T01:00:16;4.72;;;1.85;;
63218;SDS011;49320;52.512;13.448;2023-09-30T01:02:44;3.53;;;1.80;;
63218;SDS011;49320;52.512;13.448;2023-09-30T01:05:11;5.68;;;2.00;;
63218;SDS011;49320;52.512;13.448;2023-09-30T01:07:38;5.95;;;2.00;;
63218;SDS011;49320;52.512;13.448;2023-09-30T01:10:05;4.10;;;2.20;;
63218;SDS011;49320;52.512;13.448;2023-09-30T01:12:32;5.88;;;2.13;;
63218;SDS011;49320;52.512;13.448;2023-09-30T01:15:00;4.38;;;2.20;;
63218;SDS011;49320;52.512;13.448;2023-09-30T01:17:27;5.80;;;2.28;;
63218;SDS011;49320;52.512;13.448;2023-09-30T01:19:56;5.85;;;2.20;;
63218;SDS011;49320;52.512;13.448;2023-09-30T01:22:31;6.00;;;2.17;;
63218;SDS011;49320;52.512;13.448;2023-09-30T01:24:58;5.63;;;2.40;;
63218;SDS011;49320;52.512;13.448;2023-09-30T01:27:25;6.13;;;2.50;;
63218;SDS011;49320;52.512;13.448;2023-09-30T01:29:52;4.32;;;1.80;;
63218;SDS011;49320;52.512;13.448;2023-09-30T01:32:19;5.32;;;2.42;;
63218;SDS011;49320;52.512;13.448;2023-09-30T01:34:46;4.15;;;1.70;;
63218;SDS011;49320;52.512;13.448;2023-09-30T01:37:13;4.60;;;2.22;;
63218;SDS011;49320;52.512;13.448;2023-09-30T01:39:40;5.07;;;2.00;;
63218;SDS011;49320;52.512;13.448;2023-09-30T01:42:07;5.85;;;2.40;;
63218;SDS011;49320;52.512;13.448;2023-09-30T01:44:34;4.90;;;1.83;;
63218;SDS011;49320;52.512;13.448;2023-09-30T01:47:01;5.53;;;1.85;;
63218;SDS011;49320;52.512;13.448;2023-09-30T01:49:27;4.38;;;2.10;;
63218;SDS011;49320;52.512;13.448;2023-09-30T01:51:54;3.80;;;1.85;;
63218;SDS011;49320;52.512;13.448;2023-09-30T01:54:21;4.43;;;2.25;;
63218;SDS011;49320;52.512;13.448;2023-09-30T01:56:48;5.32;;;1.92;;
63218;SDS011;49320;52.512;13.448;2023-09-30T01:59:16;4.32;;;1.77;;
63218;SDS011;49320;52.512;13.448;2023-09-30T02:01:43;5.60;;;2.20;;
63218;SDS011;49320;52.512;13.448;2023-09-30T02:04:09;6.82;;;2.30;;
63218;SDS011;49320;52.512;13.448;2023-09-30T02:06:36;4.53;;;1.95;;
63218;SDS011;49320;52.512;13.448;2023-09-30T02:09:03;5.85;;;2.42;;
63218;SDS011;49320;52.512;13.448;2023-09-30T02:11:31;3.42;;;1.90;;
63218;SDS011;49320;52.512;13.448;2023-09-30T02:13:58;6.47;;;2.70;;
63218;SDS011;49320;52.512;13.448;2023-09-30T02:16:25;5.38;;;2.33;;
63218;SDS011;49320;52.512;13.448;2023-09-30T02:18:52;7.55;;;2.72;;
63218;SDS011;49320;52.512;13.448;2023-09-30T02:21:19;6.25;;;2.20;;
63218;SDS011;49320;52.512;13.448;2023-09-30T02:23:48;7.75;;;2.90;;
63218;SDS011;49320;52.512;13.448;2023-09-30T02:26:15;6.07;;;2.22;;
63218;SDS011;49320;52.512;13.448;2023-09-30T02:28:43;5.07;;;2.45;;
63218;SDS011;49320;52.512;13.448;2023-09-30T02:31:10;6.47;;;2.42;;
63218;SDS011;49320;52.512;13.448;2023-09-30T02:33:36;6.00;;;2.40;;
63218;SDS011;49320;52.512;13.448;2023-09-30T02:36:08;5.03;;;2.17;;
63218;SDS011;49320;52.512;13.448;2023-09-30T02:38:35;7.97;;;3.13;;
63218;SDS011;49320;52.512;13.448;2023-09-30T02:41:03;5.35;;;2.28;;
63218;SDS011;49320;52.512;13.448;2023-09-30T02:43:31;5.72;;;2.55;;
63218;SDS011;49320;52.512;13.448;2023-09-30T02:45:59;6.95;;;2.92;;
63218;SDS011;49320;52.512;13.448;2023-09-30T02:48:26;6.28;;;2.35;;
63218;SDS011;49320;52.512;13.448;2023-09-30T02:50:53;6.30;;;2.45;;
63218;SDS011;49320;52.512;13.448;2023-09-30T02:53:20;5.43;;;2.35;;
63218;SDS011;49320;52.512;13.448;2023-09-30T02:55:48;6.28;;;2.35;;
63218;SDS011;49320;52.512;13.448;2023-09-30T02:58:16;8.50;;;2.60;;
63218;SDS011;49320;52.512;13.448;2023-09-30T03:00:47;8.73;;;2.45;;
63218;SDS011;49320;52.512;13.448;2023-09-30T03:03:15;7.97;;;2.58;;
63218;SDS011;49320;52.512;13.448;2023-09-30T03:05:43;4.78;;;2.22;;
63218;SDS011;49320;52.512;13.448;2023-09-30T03:08:11;6.40;;;2.80;;
63218;SDS011;49320;52.512;13.448;2023-09-30T03:10:38;5.70;;;2.42;;
63218;SDS011;49320;52.512;13.448;2023-09-30T03:13:07;5.30;;;2.35;;
63218;SDS011;49320;52.512;13.448;2023-09-30T03:15:35;5.97;;;2.50;;
63218;SDS011;49320;52.512;13.448;2023-09-30T03:18:03;6.85;;;2.67;;
63218;SDS011;49320;52.512;13.448;2023-09-30T03:20:31;8.52;;;2.88;;
63218;SDS011;49320;52.512;13.448;2023-09-30T03:22:58;7.47;;;3.17;;
63218;SDS011;49320;52.512;13.448;2023-09-30T03:25:25;7.60;;;2.88;;
63218;SDS011;49320;52.512;13.448;2023-09-30T03:27:53;8.38;;;3.50;;
63218;SDS011;49320;52.512;13.448;2023-09-30T03:30:20;5.28;;;2.22;;
63218;SDS011;49320;52.512;13.448;2023-09-30T03:32:47;8.18;;;2.92;;
63218;SDS011;49320;52.512;13.448;2023-09-30T03:35:15;8.13;;;3.38;;
63218;SDS011;49320;52.512;13.448;2023-09-30T03:37:45;8.13;;;2.75;;
63218;SDS011;49320;52.512;13.448;2023-09-30T03:40:14;6.88;;;3.15;;
63218;SDS011;49320;52.512;13.448;2023-09-30T03:42:46;7.45;;;3.00;;
63218;SDS011;49320;52.512;13.448;2023-09-30T03:45:17;7.38;;;2.80;;
63218;SDS011;49320;52.512;13.448;2023-09-30T03:47:45;6.10;;;2.70;;
63218;SDS011;49320;52.512;13.448;2023-09-30T03:50:14;7.05;;;3.05;;
63218;SDS011;49320;52.512;13.448;2023-09-30T03:52:42;7.00;;;2.90;;
63218;SDS011;49320;52.512;13.448;2023-09-30T03:55:13;7.65;;;2.55;;
63218;SDS011;49320;52.512;13.448;2023-09-30T03:57:42;7.25;;;2.80;;
63218;SDS011;49320;52.512;13.448;2023-09-30T04:00:14;5.85;;;2.70;;
63218;SDS011;49320;52.512;13.448;2023-09-30T04:02:46;10.95;;;2.83;;
63218;SDS011;49320;52.512;13.448;2023-09-30T04:05:18;7.45;;;2.97;;
63218;SDS011;49320;52.512;13.448;2023-09-30T04:07:46;10.35;;;3.65;;
63218;SDS011;49320;52.512;13.448;2023-09-30T04:10:13;8.60;;;3.00;;
63218;SDS011;49320;52.512;13.448;2023-09-30T04:12:40;7.68;;;3.40;;
63218;SDS011;49320;52.512;13.448;2023-09-30T04:15:07;4.63;;;2.88;;
63218;SDS011;49320;52.512;13.448;2023-09-30T04:17:38;6.80;;;3.05;;
63218;SDS011;49320;52.512;13.448;2023-09-30T04:20:06;6.25;;;2.85;;
63218;SDS011;49320;52.512;13.448;2023-09-30T04:22:44;4.85;;;2.80;;
63218;SDS011;49320;52.512;13.448;2023-09-30T04:25:16;6.32;;;2.83;;
63218;SDS011;49320;52.512;13.448;2023-09-30T04:27:44;7.78;;;3.50;;
63218;SDS011;49320;52.512;13.448;2023-09-30T04:30:14;5.95;;;2.92;;
63218;SDS011;49320;52.512;13.448;2023-09-30T04:32:41;6.57;;;2.88;;
63218;SDS011;49320;52.512;13.448;2023-09-30T04:35:09;5.13;;;2.92;;
63218;SDS011;49320;52.512;13.448;2023-09-30T04:37:37;6.28;;;2.75;;
63218;SDS011;49320;52.512;13.448;2023-09-30T04:40:04;8.65;;;3.60;;
63218;SDS011;49320;52.512;13.448;2023-09-30T04:42:34;7.47;;;3.20;;
63218;SDS011;49320;52.512;13.448;2023-09-30T04:45:03;6.28;;;2.90;;
63218;SDS011;49320;52.512;13.448;2023-09-30T04:47:33;6.68;;;2.63;;
63218;SDS011;49320;52.512;13.448;2023-09-30T04:50:00;6.53;;;3.17;;
63218;SDS011;49320;52.512;13.448;2023-09-30T04:52:31;7.25;;;3.17;;
63218;SDS011;49320;52.512;13.448;2023-09-30T04:54:58;7.88;;;3.15;;
63218;SDS011;49320;52.512;13.448;2023-09-30T04:57:26;8.07;;;3.20;;
63218;SDS011;49320;52.512;13.448;2023-09-30T04:59:53;6.90;;;2.72;;
63218;SDS011;49320;52.512;13.448;2023-09-30T05:02:21;8.95;;;2.75;;
63218;SDS011;49320;52.512;13.448;2023-09-30T05:04:50;5.15;;;2.42;;
63218;SDS011;49320;52.512;13.448;2023-09-30T05:07:16;7.10;;;3.08;;
63218;SDS011;49320;52.512;13.448;2023-09-30T05:09:43;8.30;;;3.05;;
63218;SDS011;49320;52.512;13.448;2023-09-30T05:12:11;8.70;;;3.60;;
63218;SDS011;49320;52.512;13.448;2023-09-30T05:14:38;8.75;;;2.75;;
63218;SDS011;49320;52.512;13.448;2023-09-30T05:17:05;8.23;;;3.47;;
63218;SDS011;49320;52.512;13.448;2023-09-30T05:19:32;9.23;;;3.65;;
63218;SDS011;49320;52.512;13.448;2023-09-30T05:21:59;7.80;;;3.05;;
63218;SDS011;49320;52.512;13.448;2023-09-30T05:24:27;6.63;;;3.10;;
63218;SDS011;49320;52.512;13.448;2023-09-30T05:26:55;5.70;;;2.45;;
63218;SDS011;49320;52.512;13.448;2023-09-30T05:29:22;6.13;;;2.70;;
63218;SDS011;49320;52.512;13.448;2023-09-30T05:31:49;9.18;;;3.63;;
63218;SDS011;49320;52.512;13.448;2023-09-30T05:34:17;8.02;;;3.50;;
63218;SDS011;49320;52.512;13.448;2023-09-30T05:36:44;8.93;;;3.40;;
63218;SDS011;49320;52.512;13.448;2023-09-30T05:39:11;10.65;;;3.53;;
63218;SDS011;49320;52.512;13.448;2023-09-30T05:41:38;11.65;;;4.00;;
63218;SDS011;49320;52.512;13.448;2023-09-30T05:44:05;10.93;;;3.75;;
63218;SDS011;49320;52.512;13.448;2023-09-30T05:46:34;8.00;;;3.35;;
63218;SDS011;49320;52.512;13.448;2023-09-30T05:49:01;9.73;;;4.35;;
63218;SDS011;49320;52.512;13.448;2023-09-30T05:51:33;8.05;;;2.90;;
63218;SDS011;49320;52.512;13.448;2023-09-30T05:54:00;8.50;;;3.10;;
63218;SDS011;49320;52.512;13.448;2023-09-30T05:56:26;8.68;;;2.90;;
63218;SDS011;49320;52.512;13.448;2023-09-30T05:58:53;8.40;;;3.10;;
63218;SDS011;49320;52.512;13.448;2023-09-30T06:01:21;7.03;;;3.25;;
63218;SDS011;49320;52.512;13.448;2023-09-30T06:03:48;9.40;;;3.53;;
63218;SDS011;49320;52.512;13.448;2023-09-30T06:06:15;8.57;;;3.35;;
63218;SDS011;49320;52.512;13.448;2023-09-30T06:08:42;7.35;;;3.03;;
63218;SDS011;49320;52.512;13.448;2023-09-30T06:11:19;6.00;;;2.78;;
63218;SDS011;49320;52.512;13.448;2023-09-30T06:13:54;8.25;;;3.20;;
63218;SDS011;49320;52.512;13.448;2023-09-30T06:16:21;7.68;;;3.28;;
63218;SDS011;49320;52.512;13.448;2023-09-30T06:18:49;5.20;;;2.85;;
63218;SDS011;49320;52.512;13.448;2023-09-30T06:21:17;8.02;;;3.08;;
63218;SDS011;49320;52.512;13.448;2023-09-30T06:23:47;7.75;;;2.83;;
63218;SDS011;49320;52.512;13.448;2023-09-30T06:26:14;7.18;;;2.60;;
63218;SDS011;49320;52.512;13.448;2023-09-30T06:28:42;7.25;;;3.17;;
63218;SDS011;49320;52.512;13.448;2023-09-30T06:31:11;6.28;;;3.00;;
63218;SDS011;49320;52.512;13.448;2023-09-30T06:33:38;8.30;;;3.15;;
63218;SDS011;49320;52.512;13.448;2023-09-30T06:36:09;6.35;;;2.88;;
63218;SDS011;49320;52.512;13.448;2023-09-30T06:41:08;4.13;;;1.95;;
63218;SDS011;49320;52.512;13.448;2023-09-30T06:43:34;7.40;;;2.63;;
63218;SDS011;49320;52.512;13.448;2023-09-30T06:46:05;6.70;;;2.80;;
63218;SDS011;49320;52.512;13.448;2023-09-30T06:48:36;6.38;;;2.63;;
63218;SDS011;49320;52.512;13.448;2023-09-30T06:51:04;7.22;;;2.90;;
63218;SDS011;49320;52.512;13.448;2023-09-30T06:53:31;8.70;;;3.35;;
63218;SDS011;49320;52.512;13.448;2023-09-30T06:55:58;9.93;;;3.72;;
63218;SDS011;49320;52.512;13.448;2023-09-30T06:58:25;7.07;;;2.97;;
63218;SDS011;49320;52.512;13.448;2023-09-30T07:00:52;7.45;;;2.72;;
63218;SDS011;49320;52.512;13.448;2023-09-30T07:03:22;9.85;;;3.17;;
63218;SDS011;49320;52.512;13.448;2023-09-30T07:05:52;5.30;;;2.60;;
63218;SDS011;49320;52.512;13.448;2023-09-30T07:08:20;10.57;;;3.47;;
63218;SDS011;49320;52.512;13.448;2023-09-30T07:10:47;8.38;;;3.17;;
63218;SDS011;49320;52.512;13.448;2023-09-30T07:13:19;8.65;;;3.03;;
63218;SDS011;49320;52.512;13.448;2023-09-30T07:15:46;7.82;;;3.10;;
63218;SDS011;49320;52.512;13.448;2023-09-30T07:18:13;7.07;;;3.05;;
63218;SDS011;49320;52.512;13.448;2023-09-30T07:20:40;9.13;;;3.13;;
63218;SDS011;49320;52.512;13.448;2023-09-30T07:23:07;9.30;;;3.17;;
63218;SDS011;49320;52.512;13.448;2023-09-30T07:25:45;8.23;;;3.00;;
63218;SDS011;49320;52.512;13.448;2023-09-30T07:28:12;9.52;;;2.47;;
63218;SDS011;49320;52.512;13.448;2023-09-30T07:30:39;6.80;;;3.00;;
63218;SDS011;49320;52.512;13.448;2023-09-30T07:33:07;7.45;;;3.42;;
63218;SDS011;49320;52.512;13.448;2023-09-30T07:35:34;5.63;;;2.80;;
63218;SDS011;49320;52.512;13.448;2023-09-30T07:38:01;7.55;;;2.67;;
63218;SDS011;49320;52.512;13.448;2023-09-30T07:40:30;6.93;;;2.70;;
63218;SDS011;49320;52.512;13.448;2023-09-30T07:42:57;5.47;;;2.50;;
63218;SDS011;49320;52.512;13.448;2023-09-30T07:45:24;7.03;;;2.88;;
63218;SDS011;49320;52.512;13.448;2023-09-30T07:47:51;7.82;;;2.38;;
63218;SDS011;49320;52.512;13.448;2023-09-30T07:50:18;5.57;;;2.50;;
63218;SDS011;49320;52.512;13.448;2023-09-30T07:52:45;8.13;;;2.60;;
63218;SDS011;49320;52.512;13.448;2023-09-30T07:55:12;8.88;;;2.90;;
63218;SDS011;49320;52.512;13.448;2023-09-30T07:57:41;7.05;;;3.28;;
63218;SDS011;49320;52.512;13.448;2023-09-30T08:00:10;7.93;;;2.78;;
63218;SDS011;49320;52.512;13.448;2023-09-30T08:02:42;6.82;;;2.50;;
63218;SDS011;49320;52.512;13.448;2023-09-30T08:05:12;7.90;;;2.78;;
63218;SDS011;49320;52.512;13.448;2023-09-30T08:07:39;6.85;;;2.80;;
63218;SDS011;49320;52.512;13.448;2023-09-30T08:10:06;8.13;;;2.90;;
63218;SDS011;49320;52.512;13.448;2023-09-30T08:12:39;6.45;;;2.53;;
63218;SDS011;49320;52.512;13.448;2023-09-30T08:15:08;9.02;;;2.97;;
63218;SDS011;49320;52.512;13.448;2023-09-30T08:17:38;8.50;;;2.80;;
63218;SDS011;49320;52.512;13.448;2023-09-30T08:20:06;8.73;;;3.10;;
63218;SDS011;49320;52.512;13.448;2023-09-30T08:22:35;6.18;;;2.20;;
63218;SDS011;49320;52.512;13.448;2023-09-30T08:25:01;7.05;;;2.55;;
63218;SDS011;49320;52.512;13.448;2023-09-30T08:27:29;4.43;;;2.30;;
63218;SDS011;49320;52.512;13.448;2023-09-30T08:29:56;7.50;;;3.05;;
63218;SDS011;49320;52.512;13.448;2023-09-30T08:32:23;5.88;;;2.70;;
63218;SDS011;49320;52.512;13.448;2023-09-30T08:34:49;6.55;;;2.30;;
63218;SDS011;49320;52.512;13.448;2023-09-30T08:37:16;6.43;;;2.70;;
63218;SDS011;49320;52.512;13.448;2023-09-30T08:39:43;6.78;;;2.60;;
63218;SDS011;49320;52.512;13.448;2023-09-30T08:42:10;6.18;;;2.88;;
63218;SDS011;49320;52.512;13.448;2023-09-30T08:44:37;4.45;;;2.25;;
63218;SDS011;49320;52.512;13.448;2023-09-30T08:47:06;8.68;;;2.42;;
63218;SDS011;49320;52.512;13.448;2023-09-30T08:49:40;6.18;;;2.10;;
63218;SDS011;49320;52.512;13.448;2023-09-30T08:52:10;5.18;;;2.17;;
63218;SDS011;49320;52.512;13.448;2023-09-30T08:54:38;10.20;;;2.65;;
63218;SDS011;49320;52.512;13.448;2023-09-30T08:57:07;5.88;;;2.33;;
63218;SDS011;49320;52.512;13.448;2023-09-30T08:59:36;7.32;;;2.75;;
63218;SDS011;49320;52.512;13.448;2023-09-30T09:02:08;6.53;;;2.50;;
63218;SDS011;49320;52.512;13.448;2023-09-30T09:04:38;6.45;;;2.55;;
63218;SDS011;49320;52.512;13.448;2023-09-30T09:07:06;7.00;;;2.55;;
63218;SDS011;49320;52.512;13.448;2023-09-30T09:09:33;4.78;;;2.35;;
63218;SDS011;49320;52.512;13.448;2023-09-30T09:12:00;6.72;;;2.55;;
63218;SDS011;49320;52.512;13.448;2023-09-30T09:14:39;4.70;;;2.35;;
63218;SDS011;49320;52.512;13.448;2023-09-30T09:17:10;4.07;;;1.95;;
63218;SDS011;49320;52.512;13.448;2023-09-30T09:19:37;7.22;;;2.45;;
63218;SDS011;49320;52.512;13.448;2023-09-30T09:22:04;6.63;;;2.22;;
63218;SDS011;49320;52.512;13.448;2023-09-30T09:24:33;6.15;;;2.10;;
63218;SDS011;49320;52.512;13.448;2023-09-30T09:27:05;6.28;;;2.13;;
63218;SDS011;49320;52.512;13.448;2023-09-30T09:29:38;5.40;;;2.22;;
63218;SDS011;49320;52.512;13.448;2023-09-30T09:32:06;6.72;;;2.70;;
63218;SDS011;49320;52.512;13.448;2023-09-30T09:34:41;6.70;;;2.58;;
63218;SDS011;49320;52.512;13.448;2023-09-30T09:37:17;6.20;;;2.15;;
63218;SDS011;49320;52.512;13.448;2023-09-30T09:42:27;6.28;;;2.42;;
63218;SDS011;49320;52.512;13.448;2023-09-30T09:45:02;5.25;;;2.30;;
63218;SDS011;49320;52.512;13.448;2023-09-30T09:47:31;4.90;;;2.00;;
63218;SDS011;49320;52.512;13.448;2023-09-30T09:50:01;6.40;;;2.03;;
63218;SDS011;49320;52.512;13.448;2023-09-30T09:52:32;5.55;;;1.90;;
63218;SDS011;49320;52.512;13.448;2023-09-30T09:55:02;4.68;;;1.95;;
63218;SDS011;49320;52.512;13.448;2023-09-30T09:57:30;5.20;;;2.17;;
63218;SDS011;49320;52.512;13.448;2023-09-30T09:59:58;4.43;;;1.92;;
63218;SDS011;49320;52.512;13.448;2023-09-30T10:02:26;7.30;;;2.13;;
63218;SDS011;49320;52.512;13.448;2023-09-30T10:04:55;5.93;;;2.30;;
63218;SDS011;49320;52.512;13.448;2023-09-30T10:07:27;6.28;;;2.13;;
63218;SDS011;49320;52.512;13.448;2023-09-30T10:10:00;4.55;;;2.17;;
63218;SDS011;49320;52.512;13.448;2023-09-30T10:12:38;9.90;;;2.95;;
63218;SDS011;49320;52.512;13.448;2023-09-30T10:20:31;4.47;;;1.80;;
63218;SDS011;49320;52.512;13.448;2023-09-30T10:25:49;8.20;;;2.10;;
63218;SDS011;49320;52.512;13.448;2023-09-30T10:31:14;5.25;;;2.00;;
63218;SDS011;49320;52.512;13.448;2023-09-30T10:36:35;5.22;;;2.05;;
63218;SDS011;49320;52.512;13.448;2023-09-30T10:39:10;5.63;;;1.67;;
63218;SDS011;49320;52.512;13.448;2023-09-30T10:44:32;8.40;;;2.10;;
63218;SDS011;49320;52.512;13.448;2023-09-30T10:46:59;4.65;;;1.73;;
63218;SDS011;49320;52.512;13.448;2023-09-30T10:49:47;7.18;;;1.90;;
63218;SDS011;49320;52.512;13.448;2023-09-30T10:52:21;5.68;;;2.35;;
63218;SDS011;49320;52.512;13.448;2023-09-30T10:54:51;4.50;;;1.67;;
63218;SDS011;49320;52.512;13.448;2023-09-30T10:57:28;5.80;;;1.83;;
63218;SDS011;49320;52.512;13.448;2023-09-30T11:00:10;4.40;;;2.00;;
63218;SDS011;49320;52.512;13.448;2023-09-30T11:02:48;3.75;;;1.52;;
63218;SDS011;49320;52.512;13.448;2023-09-30T11:05:18;5.50;;;1.80;;
63218;SDS011;49320;52.512;13.448;2023-09-30T11:08:01;6.15;;;2.05;;
63218;SDS011;49320;52.512;13.448;2023-09-30T11:10:29;4.55;;;1.45;;
63218;SDS011;49320;52.512;13.448;2023-09-30T11:12:58;3.53;;;1.80;;
63218;SDS011;49320;52.512;13.448;2023-09-30T11:15:25;5.45;;;1.60;;
63218;SDS011;49320;52.512;13.448;2023-09-30T11:17:54;6.15;;;2.25;;
63218;SDS011;49320;52.512;13.448;2023-09-30T11:20:41;5.18;;;1.63;;
63218;SDS011;49320;52.512;13.448;2023-09-30T11:23:09;4.55;;;1.65;;
63218;SDS011;49320;52.512;13.448;2023-09-30T11:25:38;5.72;;;1.83;;
63218;SDS011;49320;52.512;13.448;2023-09-30T11:28:18;6.25;;;1.80;;
63218;SDS011;49320;52.512;13.448;2023-09-30T11:30:55;6.28;;;1.90;;
63218;SDS011;49320;52.512;13.448;2023-09-30T11:33:26;3.20;;;1.55;;
63218;SDS011;49320;52.512;13.448;2023-09-30T11:36:04;4.32;;;1.70;;
63218;SDS011;49320;52.512;13.448;2023-09-30T11:38:35;6.50;;;1.75;;
63218;SDS011;49320;52.512;13.448;2023-09-30T11:41:03;4.18;;;1.65;;
63218;SDS011;49320;52.512;13.448;2023-09-30T11:43:33;5.88;;;1.70;;
63218;SDS011;49320;52.512;13.448;2023-09-30T11:46:04;6.32;;;1.90;;
63218;SDS011;49320;52.512;13.448;2023-09-30T11:48:35;3.97;;;1.85;;
63218;SDS011;49320;52.512;13.448;2023-09-30T11:51:03;4.07;;;1.45;;
63218;SDS011;49320;52.512;13.448;2023-09-30T11:53:31;5.10;;;2.22;;
63218;SDS011;49320;52.512;13.448;2023-09-30T11:56:01;7.28;;;1.85;;
63218;SDS011;49320;52.512;13.448;2023-09-30T11:58:29;4.63;;;1.50;;
63218;SDS011;49320;52.512;13.448;2023-09-30T12:00:58;5.50;;;2.15;;
63218;SDS011;49320;52.512;13.448;2023-09-30T12:03:26;5.00;;;1.50;;
63218;SDS011;49320;52.512;13.448;2023-09-30T12:05:54;5.47;;;1.67;;
63218;SDS011;49320;52.512;13.448;2023-09-30T12:08:23;6.65;;;1.90;;
63218;SDS011;49320;52.512;13.448;2023-09-30T12:10:50;5.07;;;1.50;;
63218;SDS011;49320;52.512;13.448;2023-09-30T12:13:17;5.15;;;1.70;;
63218;SDS011;49320;52.512;13.448;2023-09-30T12:15:45;3.95;;;1.48;;
63218;SDS011;49320;52.512;13.448;2023-09-30T12:18:12;6.40;;;1.80;;
63218;SDS011;49320;52.512;13.448;2023-09-30T12:20:43;3.10;;;1.42;;
63218;SDS011;49320;52.512;13.448;2023-09-30T12:23:10;4.68;;;1.70;;
63218;SDS011;49320;52.512;13.448;2023-09-30T12:25:37;4.00;;;1.75;;
63218;SDS011;49320;52.512;13.448;2023-09-30T12:28:04;5.07;;;1.83;;
63218;SDS011;49320;52.512;13.448;2023-09-30T12:30:31;3.80;;;1.65;;
63218;SDS011;49320;52.512;13.448;2023-09-30T12:32:58;1.95;;;1.23;;
63218;SDS011;49320;52.512;13.448;2023-09-30T12:35:25;3.47;;;1.40;;
63218;SDS011;49320;52.512;13.448;2023-09-30T12:37:53;5.40;;;1.52;;
63218;SDS011;49320;52.512;13.448;2023-09-30T12:40:19;3.25;;;1.50;;
63218;SDS011;49320;52.512;13.448;2023-09-30T12:42:46;4.43;;;1.35;;
63218;SDS011;49320;52.512;13.448;2023-09-30T12:45:13;5.82;;;1.80;;
63218;SDS011;49320;52.512;13.448;2023-09-30T12:47:40;2.60;;;1.23;;
63218;SDS011;49320;52.512;13.448;2023-09-30T12:50:07;4.38;;;1.55;;
63218;SDS011;49320;52.512;13.448;2023-09-30T12:52:38;5.63;;;1.90;;
63218;SDS011;49320;52.512;13.448;2023-09-30T12:55:05;5.25;;;1.90;;
63218;SDS011;49320;52.512;13.448;2023-09-30T12:57:32;3.33;;;1.35;;
63218;SDS011;49320;52.512;13.448;2023-09-30T12:59:59;3.92;;;1.50;;
63218;SDS011;49320;52.512;13.448;2023-09-30T13:02:26;2.85;;;1.35;;
63218;SDS011;49320;52.512;13.448;2023-09-30T13:04:53;5.65;;;1.45;;
63218;SDS011;49320;52.512;13.448;2023-09-30T13:07:20;4.00;;;1.50;;
63218;SDS011;49320;52.512;13.448;2023-09-30T13:09:48;4.43;;;1.48;;
63218;SDS011;49320;52.512;13.448;2023-09-30T13:12:15;2.78;;;1.30;;
63218;SDS011;49320;52.512;13.448;2023-09-30T13:14:42;4.35;;;1.40;;
63218;SDS011;49320;52.512;13.448;2023-09-30T13:17:09;3.08;;;1.35;;
63218;SDS011;49320;52.512;13.448;2023-09-30T13:19:39;2.90;;;1.40;;
63218;SDS011;49320;52.512;13.448;2023-09-30T13:22:05;4.53;;;1.50;;
63218;SDS011;49320;52.512;13.448;2023-09-30T13:24:44;4.82;;;1.85;;
63218;SDS011;49320;52.512;13.448;2023-09-30T13:27:12;5.30;;;2.03;;
63218;SDS011;49320;52.512;13.448;2023-09-30T13:29:42;3.78;;;1.70;;
63218;SDS011;49320;52.512;13.448;2023-09-30T13:32:11;3.03;;;1.33;;
63218;SDS011;49320;52.512;13.448;2023-09-30T13:34:38;6.20;;;1.50;;
63218;SDS011;49320;52.512;13.448;2023-09-30T13:37:06;3.83;;;1.50;;
63218;SDS011;49320;52.512;13.448;2023-09-30T13:39:33;3.15;;;1.15;;
63218;SDS011;49320;52.512;13.448;2023-09-30T13:42:00;4.13;;;1.73;;
63218;SDS011;49320;52.512;13.448;2023-09-30T13:44:27;3.80;;;1.40;;
63218;SDS011;49320;52.512;13.448;2023-09-30T13:46:54;3.05;;;1.17;;
63218;SDS011;49320;52.512;13.448;2023-09-30T13:49:21;4.90;;;1.73;;
63218;SDS011;49320;52.512;13.448;2023-09-30T13:51:47;5.47;;;1.63;;
63218;SDS011;49320;52.512;13.448;2023-09-30T13:54:14;3.25;;;1.20;;
63218;SDS011;49320;52.512;13.448;2023-09-30T13:56:41;3.45;;;1.48;;
63218;SDS011;49320;52.512;13.448;2023-09-30T13:59:08;4.60;;;1.63;;
63218;SDS011;49320;52.512;13.448;2023-09-30T14:01:36;3.38;;;1.42;;
63218;SDS011;49320;52.512;13.448;2023-09-30T14:04:03;4.05;;;1.50;;
63218;SDS011;49320;52.512;13.448;2023-09-30T14:06:30;2.72;;;1.30;;
63218;SDS011;49320;52.512;13.448;2023-09-30T14:08:58;4.45;;;1.50;;
63218;SDS011;49320;52.512;13.448;2023-09-30T14:11:26;6.13;;;1.70;;
63218;SDS011;49320;52.512;13.448;2023-09-30T14:13:54;5.18;;;1.40;;
63218;SDS011;49320;52.512;13.448;2023-09-30T14:16:21;5.03;;;1.55;;
63218;SDS011;49320;52.512;13.448;2023-09-30T14:18:48;4.90;;;1.40;;
63218;SDS011;49320;52.512;13.448;2023-09-30T14:21:16;3.53;;;1.58;;
63218;SDS011;49320;52.512;13.448;2023-09-30T14:23:44;3.13;;;1.25;;
63218;SDS011;49320;52.512;13.448;2023-09-30T14:26:11;2.97;;;1.50;;
63218;SDS011;49320;52.512;13.448;2023-09-30T14:28:38;3.70;;;1.23;;
63218;SDS011;49320;52.512;13.448;2023-09-30T14:31:05;2.90;;;1.50;;
63218;SDS011;49320;52.512;13.448;2023-09-30T14:33:32;3.35;;;1.45;;
63218;SDS011;49320;52.512;13.448;2023-09-30T14:36:00;4.82;;;1.30;;
63218;SDS011;49320;52.512;13.448;2023-09-30T14:38:28;6.43;;;1.50;;
63218;SDS011;49320;52.512;13.448;2023-09-30T14:40:54;4.47;;;1.42;;
63218;SDS011;49320;52.512;13.448;2023-09-30T14:43:21;3.05;;;1.33;;
63218;SDS011;49320;52.512;13.448;2023-09-30T14:45:48;4.15;;;1.02;;
63218;SDS011;49320;52.512;13.448;2023-09-30T14:48:15;3.35;;;1.27;;
63218;SDS011;49320;52.512;13.448;2023-09-30T14:50:51;3.58;;;1.00;;
63218;SDS011;49320;52.512;13.448;2023-09-30T14:53:18;3.00;;;1.48;;
63218;SDS011;49320;52.512;13.448;2023-09-30T14:55:45;3.90;;;1.30;;
63218;SDS011;49320;52.512;13.448;2023-09-30T14:58:12;3.15;;;1.25;;
63218;SDS011;49320;52.512;13.448;2023-09-30T15:00:39;4.18;;;1.52;;
63218;SDS011;49320;52.512;13.448;2023-09-30T15:03:07;3.67;;;1.23;;